Time;durP1;ratioP1;P1;durP2;ratioP2;P2;SDS_P1;SDS_P2;PMS_P1;PMS_P2;Temp;Humidity;BMP_temperature;BMP_pressure;BME280_temperature;BME280_humidity;BME280_pressure;Samples;Min_cycle;Max_cycle;Signal;HPM_P1;HPM_P2
2021/12/05 00:22:10;;;;;;;2.97;1.90;;;;;;;;;;6157519;23;20225;-85
2021/12/05 00:24:46;;;;;;;5.53;1.73;;;;;;;;;;6169193;23;20190;-86
2021/12/05 00:27:24;;;;;;;4.97;1.90;;;;;;;;;;6172046;23;20224;-86
2021/12/05 00:29:59;;;;;;;3.60;1.70;;;;;;;;;;6164534;23;20181;-85
2021/12/05 00:32:34;;;;;;;5.57;1.80;;;;;;;;;;6158335;23;20188;-86
2021/12/05 00:52:23;;;;;;;4.00;1.73;;;;;;;;;;6154862;23;20209;-85
2021/12/05 00:55:10;;;;;;;3.33;1.90;;;;;;;;;;6154730;23;20198;-86
2021/12/05 01:11:47;;;;;;;4.37;1.50;;;;;;;;;;6140035;23;20174;-85
2021/12/05 01:14:30;;;;;;;2.93;1.33;;;;;;;;;;6158660;23;20233;-85
2021/12/05 01:16:59;;;;;;;4.73;1.70;;;;;;;;;;6156001;23;20194;-85
2021/12/05 01:19:34;;;;;;;4.10;1.70;;;;;;;;;;6156430;23;20229;-84
2021/12/05 01:22:12;;;;;;;2.23;1.30;;;;;;;;;;6156345;23;20201;-85
2021/12/05 01:24:53;;;;;;;4.03;1.53;;;;;;;;;;6156983;23;20222;-84
2021/12/05 01:27:32;;;;;;;3.43;1.70;;;;;;;;;;6156683;23;20171;-85
2021/12/05 01:30:05;;;;;;;4.10;1.70;;;;;;;;;;6159889;23;20155;-85
2021/12/05 01:32:45;;;;;;;3.27;1.60;;;;;;;;;;6159579;23;20201;-84
2021/12/05 01:35:30;;;;;;;2.17;1.50;;;;;;;;;;6162304;23;20198;-83
2021/12/05 01:38:08;;;;;;;2.37;1.30;;;;;;;;;;6167353;23;20178;-85
2021/12/05 01:40:49;;;;;;;3.67;1.60;;;;;;;;;;6165722;23;20154;-85
2021/12/05 01:49:19;;;;;;;4.10;1.90;;;;;;;;;;6174831;23;20174;-85
2021/12/05 01:57:56;;;;;;;1.20;1.10;;;;;;;;;;6116313;23;20203;-84
2021/12/05 02:09:05;;;;;;;3.23;1.50;;;;;;;;;;6136900;23;20178;-85
2021/12/05 02:31:35;;;;;;;3.67;1.50;;;;;;;;;;6175355;23;20153;-85
2021/12/05 02:34:15;;;;;;;1.70;1.30;;;;;;;;;;6177933;23;20186;-84
2021/12/05 02:36:54;;;;;;;2.40;1.60;;;;;;;;;;6175876;23;20182;-83
2021/12/05 02:39:39;;;;;;;1.67;1.27;;;;;;;;;;6177435;23;20159;-82
2021/12/05 02:42:10;;;;;;;4.07;1.70;;;;;;;;;;6157521;23;20182;-82
2021/12/05 02:44:39;;;;;;;2.80;1.30;;;;;;;;;;6157196;23;20190;-83
2021/12/05 02:47:09;;;;;;;2.63;1.40;;;;;;;;;;6157172;23;20229;-84
2021/12/05 02:49:38;;;;;;;1.83;1.20;;;;;;;;;;6157520;23;20163;-85
2021/12/05 02:52:09;;;;;;;2.47;1.70;;;;;;;;;;6157160;23;20241;-84
2021/12/05 02:54:39;;;;;;;2.37;1.43;;;;;;;;;;6158153;23;20348;-82
2021/12/05 02:57:07;;;;;;;6.23;1.60;;;;;;;;;;6157789;23;20174;-84
2021/12/05 02:59:43;;;;;;;5.53;1.70;;;;;;;;;;6157170;23;20527;-84
2021/12/05 03:02:13;;;;;;;3.97;1.40;;;;;;;;;;6156422;23;20155;-84
2021/12/05 03:04:45;;;;;;;2.60;1.50;;;;;;;;;;6159323;23;20195;-84
2021/12/05 03:07:14;;;;;;;3.73;1.63;;;;;;;;;;6158807;23;20166;-82
2021/12/05 03:09:43;;;;;;;2.20;1.33;;;;;;;;;;6159654;23;20201;-84
2021/12/05 03:12:16;;;;;;;3.10;1.57;;;;;;;;;;6159745;23;20174;-84
2021/12/05 03:14:44;;;;;;;3.03;1.40;;;;;;;;;;6160314;23;20230;-85
2021/12/05 03:17:11;;;;;;;1.87;1.20;;;;;;;;;;6159819;23;20174;-83
2021/12/05 03:19:38;;;;;;;4.07;1.50;;;;;;;;;;6160068;23;20246;-84
2021/12/05 03:22:05;;;;;;;2.43;1.50;;;;;;;;;;6159708;23;20190;-84
2021/12/05 03:24:35;;;;;;;2.33;1.50;;;;;;;;;;6160510;23;20631;-84
2021/12/05 03:27:02;;;;;;;3.57;1.80;;;;;;;;;;6161449;23;20174;-84
2021/12/05 03:29:30;;;;;;;3.70;1.60;;;;;;;;;;6162403;23;20170;-84
2021/12/05 03:31:57;;;;;;;4.50;2.00;;;;;;;;;;6161754;23;20231;-84
2021/12/05 03:34:24;;;;;;;2.00;1.27;;;;;;;;;;6162721;23;20206;-84
2021/12/05 03:36:53;;;;;;;2.67;1.57;;;;;;;;;;6163065;23;20237;-84
2021/12/05 03:39:21;;;;;;;2.63;1.70;;;;;;;;;;6162973;23;20194;-84
2021/12/05 03:41:52;;;;;;;2.33;1.67;;;;;;;;;;6163510;23;20190;-85
2021/12/05 03:44:20;;;;;;;2.80;1.50;;;;;;;;;;6164169;23;20195;-84
2021/12/05 03:46:48;;;;;;;2.60;1.40;;;;;;;;;;6162475;23;20194;-84
2021/12/05 03:49:15;;;;;;;5.10;1.80;;;;;;;;;;6161629;23;20227;-85
2021/12/05 03:51:44;;;;;;;3.20;1.77;;;;;;;;;;6160473;23;20198;-84
2021/12/05 03:54:11;;;;;;;3.43;1.57;;;;;;;;;;6161107;23;20205;-84
2021/12/05 03:56:38;;;;;;;2.40;1.50;;;;;;;;;;6160490;23;20170;-84
2021/12/05 03:59:09;;;;;;;3.53;1.80;;;;;;;;;;6161197;23;20218;-84
2021/12/05 04:01:36;;;;;;;2.47;1.60;;;;;;;;;;6160417;23;20167;-84
2021/12/05 04:04:04;;;;;;;3.70;1.60;;;;;;;;;;6161415;23;20249;-83
2021/12/05 04:06:32;;;;;;;1.93;1.60;;;;;;;;;;6161029;23;20205;-84
2021/12/05 04:09:00;;;;;;;3.30;1.70;;;;;;;;;;6160924;23;20183;-84
2021/12/05 04:11:33;;;;;;;5.03;2.37;;;;;;;;;;6159617;23;20186;-83
2021/12/05 04:14:01;;;;;;;4.40;1.40;;;;;;;;;;6161142;23;20213;-84
2021/12/05 04:16:29;;;;;;;5.17;1.60;;;;;;;;;;6160712;23;20175;-84
2021/12/05 04:18:57;;;;;;;4.40;1.60;;;;;;;;;;6160660;23;20207;-84
2021/12/05 04:21:25;;;;;;;2.97;1.70;;;;;;;;;;6159495;23;20182;-84
2021/12/05 04:23:52;;;;;;;2.33;1.80;;;;;;;;;;6160156;23;20205;-84
2021/12/05 04:26:19;;;;;;;4.27;1.50;;;;;;;;;;6160670;23;20198;-84
2021/12/05 04:28:48;;;;;;;3.00;1.60;;;;;;;;;;6160625;23;20190;-83
2021/12/05 04:31:16;;;;;;;2.23;1.60;;;;;;;;;;6159308;23;20187;-81
2021/12/05 04:33:44;;;;;;;2.90;1.50;;;;;;;;;;6160423;23;20198;-84
2021/12/05 04:36:11;;;;;;;1.90;1.57;;;;;;;;;;6161329;23;20174;-84
2021/12/05 04:38:39;;;;;;;5.50;1.87;;;;;;;;;;6161189;23;20662;-84
2021/12/05 04:41:06;;;;;;;2.13;1.40;;;;;;;;;;6160755;23;20174;-84
2021/12/05 04:43:37;;;;;;;4.73;1.50;;;;;;;;;;6162785;23;20201;-82
2021/12/05 04:46:05;;;;;;;4.00;1.43;;;;;;;;;;6163507;23;20181;-84
2021/12/05 04:48:32;;;;;;;1.50;1.30;;;;;;;;;;6163126;23;20237;-84
2021/12/05 04:51:01;;;;;;;3.47;1.73;;;;;;;;;;6163715;23;20174;-84
2021/12/05 04:53:28;;;;;;;2.53;1.30;;;;;;;;;;6163412;23;20249;-84
2021/12/05 04:55:56;;;;;;;2.13;1.67;;;;;;;;;;6163613;23;20175;-84
2021/12/05 04:58:23;;;;;;;2.47;1.47;;;;;;;;;;6163474;23;20227;-84
2021/12/05 05:00:50;;;;;;;3.03;1.70;;;;;;;;;;6162852;23;20182;-84
2021/12/05 05:03:18;;;;;;;3.10;1.70;;;;;;;;;;6162499;23;20195;-84
2021/12/05 05:05:51;;;;;;;4.07;1.60;;;;;;;;;;6163074;23;20258;-84
2021/12/05 05:08:20;;;;;;;3.73;1.80;;;;;;;;;;6163448;23;20159;-84
2021/12/05 05:10:47;;;;;;;3.73;1.70;;;;;;;;;;6174291;23;20186;-84
2021/12/05 05:13:15;;;;;;;2.57;1.50;;;;;;;;;;6178744;23;20171;-85
2021/12/05 05:15:42;;;;;;;3.17;2.00;;;;;;;;;;6170376;23;20203;-86
2021/12/05 05:18:11;;;;;;;3.73;2.03;;;;;;;;;;6160159;23;20195;-86
2021/12/05 05:20:44;;;;;;;2.50;1.87;;;;;;;;;;6162055;23;20171;-87
2021/12/05 05:23:23;;;;;;;2.70;1.60;;;;;;;;;;6162880;23;20187;-86
2021/12/05 05:40:16;;;;;;;3.03;1.47;;;;;;;;;;6162900;23;20193;-86
2021/12/05 05:43:13;;;;;;;2.43;1.47;;;;;;;;;;6163718;23;20226;-85
2021/12/05 05:51:10;;;;;;;2.27;1.60;;;;;;;;;;6163823;23;20170;-85
2021/12/05 05:53:37;;;;;;;2.67;1.80;;;;;;;;;;6164412;23;20179;-85
2021/12/05 05:56:05;;;;;;;4.57;1.77;;;;;;;;;;6164930;23;20214;-85
2021/12/05 05:58:42;;;;;;;2.87;1.60;;;;;;;;;;6164043;23;20269;-85
2021/12/05 06:01:18;;;;;;;4.93;1.80;;;;;;;;;;6164481;23;20167;-85
2021/12/05 06:03:45;;;;;;;4.00;1.67;;;;;;;;;;6165547;23;20206;-85
2021/12/05 06:06:13;;;;;;;1.83;1.70;;;;;;;;;;6164796;23;20198;-86
2021/12/05 06:08:41;;;;;;;2.77;1.50;;;;;;;;;;6164551;23;20209;-85
2021/12/05 06:11:09;;;;;;;4.43;1.63;;;;;;;;;;6164838;23;20190;-85
2021/12/05 06:13:38;;;;;;;2.37;1.67;;;;;;;;;;6165522;23;20257;-85
2021/12/05 06:16:06;;;;;;;2.40;1.40;;;;;;;;;;6164390;23;20206;-85
2021/12/05 06:18:33;;;;;;;2.43;1.70;;;;;;;;;;6164638;23;20210;-85
2021/12/05 06:21:01;;;;;;;3.00;1.80;;;;;;;;;;6164772;23;20186;-85
2021/12/05 06:23:28;;;;;;;2.40;1.53;;;;;;;;;;6163031;23;20189;-85
2021/12/05 06:25:56;;;;;;;4.30;1.60;;;;;;;;;;6164094;23;20214;-86
2021/12/05 06:28:28;;;;;;;2.43;1.57;;;;;;;;;;6163297;23;20171;-85
2021/12/05 06:31:04;;;;;;;1.53;1.43;;;;;;;;;;6164229;23;20170;-85
2021/12/05 06:39:23;;;;;;;1.73;1.60;;;;;;;;;;6165320;23;20185;-85
2021/12/05 06:47:25;;;;;;;2.93;1.40;;;;;;;;;;6181859;23;20155;-86
2021/12/05 06:49:52;;;;;;;2.30;1.70;;;;;;;;;;6163946;23;20159;-85
2021/12/05 06:52:19;;;;;;;2.20;1.60;;;;;;;;;;6155429;23;20178;-85
2021/12/05 06:54:47;;;;;;;3.63;1.40;;;;;;;;;;6154531;23;20226;-85
2021/12/05 06:57:14;;;;;;;4.37;1.50;;;;;;;;;;6155285;23;20205;-86
2021/12/05 06:59:45;;;;;;;4.43;1.57;;;;;;;;;;6154926;23;20314;-85
2021/12/05 07:02:13;;;;;;;2.43;1.70;;;;;;;;;;6154981;23;20163;-86
2021/12/05 07:05:18;;;;;;;2.73;1.20;;;;;;;;;;6161836;23;20178;-85
2021/12/05 07:07:45;;;;;;;3.20;1.63;;;;;;;;;;6163327;23;20189;-85
2021/12/05 07:10:15;;;;;;;1.67;1.20;;;;;;;;;;6164143;23;20177;-84
2021/12/05 07:13:21;;;;;;;2.10;1.60;;;;;;;;;;6155600;23;20198;-90
2021/12/05 07:15:47;;;;;;;2.13;1.27;;;;;;;;;;6164144;23;20213;-85
2021/12/05 07:21:20;;;;;;;2.43;1.47;;;;;;;;;;6166624;23;20193;-86
2021/12/05 07:23:56;;;;;;;3.17;1.70;;;;;;;;;;6164939;23;20190;-83
2021/12/05 07:26:31;;;;;;;1.70;1.40;;;;;;;;;;6167524;23;20194;-85
2021/12/05 07:42:43;;;;;;;1.83;1.40;;;;;;;;;;6159007;23;20162;-85
2021/12/05 07:45:12;;;;;;;2.00;1.23;;;;;;;;;;6156477;23;20217;-85
2021/12/05 07:47:45;;;;;;;1.27;1.13;;;;;;;;;;6155477;23;20181;-86
2021/12/05 07:50:13;;;;;;;1.30;1.20;;;;;;;;;;6156166;23;20162;-83
2021/12/05 07:52:46;;;;;;;2.27;1.40;;;;;;;;;;6156331;23;20181;-85
2021/12/05 07:55:19;;;;;;;2.83;1.90;;;;;;;;;;6154459;23;20194;-83
2021/12/05 07:58:02;;;;;;;2.00;1.53;;;;;;;;;;6158141;23;20166;-85
2021/12/05 08:00:36;;;;;;;1.80;1.43;;;;;;;;;;6159422;23;20187;-85
2021/12/05 08:14:33;;;;;;;2.13;1.50;;;;;;;;;;6157376;23;20158;-85
2021/12/05 08:17:01;;;;;;;2.37;1.63;;;;;;;;;;6158251;23;20182;-85
2021/12/05 08:19:29;;;;;;;2.20;1.53;;;;;;;;;;6156659;23;20253;-84
2021/12/05 08:21:56;;;;;;;3.73;1.60;;;;;;;;;;6156088;23;20254;-86
2021/12/05 08:24:28;;;;;;;3.43;1.70;;;;;;;;;;6157759;23;20635;-86
2021/12/05 08:26:56;;;;;;;3.73;1.70;;;;;;;;;;6160006;23;20182;-85
2021/12/05 08:29:31;;;;;;;3.03;1.50;;;;;;;;;;6157659;23;20167;-85
2021/12/05 08:32:13;;;;;;;3.23;1.70;;;;;;;;;;6157658;23;20176;-85
2021/12/05 08:34:50;;;;;;;2.53;1.73;;;;;;;;;;6156767;23;20174;-85
2021/12/05 08:46:09;;;;;;;3.57;1.40;;;;;;;;;;6156343;23;20273;-88
2021/12/05 09:22:10;;;;;;;2.50;1.60;;;;;;;;;;6153455;23;20241;-88
2021/12/05 09:30:24;;;;;;;1.57;1.20;;;;;;;;;;6157272;23;20171;-87
2021/12/05 09:38:54;;;;;;;2.97;1.60;;;;;;;;;;6158190;23;20189;-87
2021/12/05 10:01:55;;;;;;;3.10;1.53;;;;;;;;;;6123983;23;20203;-86
2021/12/05 10:07:18;;;;;;;1.97;1.13;;;;;;;;;;6158086;23;20166;-88
2021/12/05 10:12:59;;;;;;;1.30;1.10;;;;;;;;;;6154639;23;20239;-88
2021/12/05 10:27:24;;;;;;;2.30;1.60;;;;;;;;;;6159419;23;20242;-87
2021/12/05 10:38:19;;;;;;;3.63;1.40;;;;;;;;;;6158939;23;20155;-87
2021/12/05 10:40:56;;;;;;;2.50;1.33;;;;;;;;;;6158842;23;20226;-88
2021/12/05 10:43:24;;;;;;;2.10;1.07;;;;;;;;;;6158784;23;20197;-87
2021/12/05 10:45:52;;;;;;;1.73;1.20;;;;;;;;;;6157379;23;20213;-87
2021/12/05 10:48:27;;;;;;;3.67;1.30;;;;;;;;;;6162052;23;20174;-87
2021/12/05 10:50:55;;;;;;;2.23;1.60;;;;;;;;;;6163851;23;20170;-87
2021/12/05 10:53:32;;;;;;;1.93;1.30;;;;;;;;;;6160779;23;20191;-87
2021/12/05 10:56:02;;;;;;;1.40;1.20;;;;;;;;;;6160068;23;20194;-87
2021/12/05 10:58:38;;;;;;;1.47;1.20;;;;;;;;;;6160183;23;20170;-86
2021/12/05 11:01:07;;;;;;;1.57;1.30;;;;;;;;;;6158476;23;20190;-88
2021/12/05 11:03:35;;;;;;;1.33;1.10;;;;;;;;;;6160584;23;20186;-87
2021/12/05 11:06:02;;;;;;;1.20;1.00;;;;;;;;;;6161059;23;20191;-87
2021/12/05 11:08:35;;;;;;;4.17;1.10;;;;;;;;;;6157611;23;20206;-87
2021/12/05 11:11:10;;;;;;;1.53;1.00;;;;;;;;;;6158847;23;20182;-87
2021/12/05 11:13:38;;;;;;;1.00;0.73;;;;;;;;;;6156256;23;20194;-88
2021/12/05 11:16:06;;;;;;;1.47;1.10;;;;;;;;;;6157195;23;20202;-87
2021/12/05 11:18:44;;;;;;;1.23;1.00;;;;;;;;;;6156349;23;20236;-88
2021/12/05 11:21:31;;;;;;;5.80;2.70;;;;;;;;;;6156568;23;20634;-88
2021/12/05 11:24:11;;;;;;;5.57;3.80;;;;;;;;;;6157574;23;20186;-88
2021/12/05 11:26:39;;;;;;;3.40;2.67;;;;;;;;;;6158627;23;20249;-86
2021/12/05 11:29:07;;;;;;;4.27;2.70;;;;;;;;;;6156877;23;20178;-86
2021/12/05 11:31:35;;;;;;;51.83;29.53;;;;;;;;;;6157840;23;20194;-86
2021/12/05 11:34:02;;;;;;;22.30;14.37;;;;;;;;;;6157228;23;20225;-87
2021/12/05 11:36:32;;;;;;;5.50;3.30;;;;;;;;;;6158547;23;20210;-88
2021/12/05 11:39:00;;;;;;;4.30;3.13;;;;;;;;;;6157685;23;20194;-86
2021/12/05 11:41:28;;;;;;;3.63;3.00;;;;;;;;;;6158797;23;20198;-86
2021/12/05 11:43:58;;;;;;;3.67;2.67;;;;;;;;;;6157698;23;20182;-86
2021/12/05 11:46:27;;;;;;;2.63;2.30;;;;;;;;;;6155745;23;20205;-89
2021/12/05 11:48:56;;;;;;;11.87;8.93;;;;;;;;;;6157748;23;20181;-89
2021/12/05 11:51:30;;;;;;;41.87;27.13;;;;;;;;;;6155683;23;20177;-88
2021/12/05 11:53:58;;;;;;;13.73;9.53;;;;;;;;;;6155059;23;20170;-87
2021/12/05 11:56:39;;;;;;;7.17;5.13;;;;;;;;;;6154662;23;20217;-87
2021/12/05 11:59:08;;;;;;;3.53;2.90;;;;;;;;;;6155715;23;20161;-87
2021/12/05 12:01:37;;;;;;;4.17;1.73;;;;;;;;;;6157311;23;20214;-86
2021/12/05 12:04:04;;;;;;;4.33;1.97;;;;;;;;;;6157923;23;20182;-87
2021/12/05 12:06:32;;;;;;;1.87;1.27;;;;;;;;;;6156528;23;20213;-86
2021/12/05 12:08:59;;;;;;;2.37;1.67;;;;;;;;;;6156599;23;20290;-87
2021/12/05 12:11:27;;;;;;;2.00;1.50;;;;;;;;;;6156767;23;20170;-87
2021/12/05 12:13:56;;;;;;;1.50;1.37;;;;;;;;;;6158806;23;20171;-90
2021/12/05 12:16:23;;;;;;;2.50;1.30;;;;;;;;;;6156557;23;20202;-86
2021/12/05 12:18:52;;;;;;;1.90;1.40;;;;;;;;;;6159052;23;20175;-83
2021/12/05 12:21:21;;;;;;;2.40;1.20;;;;;;;;;;6159500;23;20218;-82
2021/12/05 12:23:49;;;;;;;1.50;1.40;;;;;;;;;;6159014;23;20174;-82
2021/12/05 12:26:16;;;;;;;1.30;1.20;;;;;;;;;;6158616;23;20255;-83
2021/12/05 12:28:44;;;;;;;2.17;1.50;;;;;;;;;;6160562;23;20170;-89
2021/12/05 12:31:14;;;;;;;2.47;1.20;;;;;;;;;;6161290;23;20166;-82
2021/12/05 12:33:43;;;;;;;1.60;1.30;;;;;;;;;;6159316;23;20171;-85
2021/12/05 12:36:11;;;;;;;1.40;1.30;;;;;;;;;;6161576;23;20225;-83
2021/12/05 12:38:40;;;;;;;3.70;1.93;;;;;;;;;;6160757;23;20190;-86
2021/12/05 12:41:13;;;;;;;2.23;1.50;;;;;;;;;;6162632;23;20295;-84
2021/12/05 12:43:49;;;;;;;1.40;1.30;;;;;;;;;;6160342;23;20166;-83
2021/12/05 12:46:23;;;;;;;1.93;1.10;;;;;;;;;;6158713;23;20189;-86
2021/12/05 12:48:52;;;;;;;2.10;1.30;;;;;;;;;;6157362;23;20181;-85
2021/12/05 12:51:26;;;;;;;1.63;0.90;;;;;;;;;;6159817;23;20179;-85
2021/12/05 12:53:56;;;;;;;2.03;1.50;;;;;;;;;;6162590;23;20259;-86
2021/12/05 12:56:24;;;;;;;2.80;1.60;;;;;;;;;;6157407;23;20206;-88
2021/12/05 12:58:54;;;;;;;1.70;1.50;;;;;;;;;;6155466;23;20175;-88
2021/12/05 13:02:13;;;;;;;13.87;8.30;;;;;;;;;;6161391;23;20178;-90
2021/12/05 13:05:02;;;;;;;4.60;2.90;;;;;;;;;;6181439;23;20215;-90
2021/12/05 13:10:22;;;;;;;3.30;2.17;;;;;;;;;;6165758;23;20189;-89
2021/12/05 13:12:52;;;;;;;1.73;1.50;;;;;;;;;;6156507;23;20174;-90
2021/12/05 13:15:22;;;;;;;3.93;3.00;;;;;;;;;;6157362;23;20214;-88
2021/12/05 13:17:53;;;;;;;1.00;0.90;;;;;;;;;;6163011;23;20167;-89
2021/12/05 13:20:23;;;;;;;1.63;1.40;;;;;;;;;;6165128;23;20194;-88
2021/12/05 13:23:01;;;;;;;3.00;1.53;;;;;;;;;;6166322;23;20202;-87
2021/12/05 13:25:30;;;;;;;2.50;2.00;;;;;;;;;;6166145;23;20194;-87
2021/12/05 13:27:58;;;;;;;1.50;1.23;;;;;;;;;;6163821;23;20175;-86
2021/12/05 13:30:32;;;;;;;2.10;0.80;;;;;;;;;;6160434;23;20241;-87
2021/12/05 13:33:17;;;;;;;1.73;1.20;;;;;;;;;;6156622;23;20190;-92
2021/12/05 13:35:45;;;;;;;1.90;1.17;;;;;;;;;;6153546;23;20237;-89
2021/12/05 13:38:29;;;;;;;1.53;1.00;;;;;;;;;;6156030;23;20185;-87
2021/12/05 13:40:59;;;;;;;2.10;1.70;;;;;;;;;;6158962;23;20416;-88
2021/12/05 13:43:30;;;;;;;1.67;0.90;;;;;;;;;;6156709;23;20547;-88
2021/12/05 13:48:43;;;;;;;1.13;1.03;;;;;;;;;;6156178;23;20175;-88
2021/12/05 13:51:10;;;;;;;1.50;1.40;;;;;;;;;;6154176;23;20178;-88
2021/12/05 13:53:49;;;;;;;2.72;1.80;;;;;;;;;;6155420;23;20471;-92
2021/12/05 13:56:24;;;;;;;1.90;1.70;;;;;;;;;;6155357;23;20448;-86
2021/12/05 13:59:14;;;;;;;4.17;1.90;;;;;;;;;;6157010;23;20170;-93
2021/12/05 14:01:46;;;;;;;3.93;2.47;;;;;;;;;;6158415;23;20193;-87
2021/12/05 14:04:29;;;;;;;2.53;1.70;;;;;;;;;;6162924;23;20202;-87
2021/12/05 14:06:58;;;;;;;1.50;1.40;;;;;;;;;;6157910;23;20250;-85
2021/12/05 14:09:27;;;;;;;2.93;1.47;;;;;;;;;;6162473;23;20222;-86
2021/12/05 14:11:56;;;;;;;2.43;1.80;;;;;;;;;;6158785;23;20170;-86
2021/12/05 14:14:25;;;;;;;2.27;1.80;;;;;;;;;;6159214;23;20175;-87
2021/12/05 14:16:53;;;;;;;2.53;1.80;;;;;;;;;;6156413;23;20175;-86
2021/12/05 14:19:22;;;;;;;1.97;1.77;;;;;;;;;;6160394;23;20171;-86
2021/12/05 14:21:52;;;;;;;3.33;1.83;;;;;;;;;;6158927;23;20210;-87
2021/12/05 14:24:20;;;;;;;2.50;1.80;;;;;;;;;;6156846;23;20177;-91
2021/12/05 14:26:59;;;;;;;1.70;1.60;;;;;;;;;;6157035;23;20198;-90
2021/12/05 14:29:39;;;;;;;5.40;3.63;;;;;;;;;;6157325;23;20249;-91
2021/12/05 14:32:35;;;;;;;4.87;4.37;;;;;;;;;;6161553;23;20227;-94
2021/12/05 14:35:04;;;;;;;4.07;3.57;;;;;;;;;;6148816;23;20237;-88
2021/12/05 14:37:33;;;;;;;3.70;2.60;;;;;;;;;;6157500;23;20470;-92
2021/12/05 14:40:09;;;;;;;2.77;2.30;;;;;;;;;;6157747;23;20177;-89
2021/12/05 14:42:45;;;;;;;2.73;2.37;;;;;;;;;;6154691;23;20188;-89
2021/12/05 14:45:18;;;;;;;1.80;1.70;;;;;;;;;;6160367;23;20197;-88
2021/12/05 14:47:49;;;;;;;2.07;1.57;;;;;;;;;;6171238;23;20171;-89
2021/12/05 14:50:18;;;;;;;2.80;1.80;;;;;;;;;;6172972;23;20167;-89
2021/12/05 14:52:51;;;;;;;1.67;1.57;;;;;;;;;;6155923;23;20233;-89
2021/12/05 14:55:47;;;;;;;1.60;1.50;;;;;;;;;;6159109;23;20223;-93
2021/12/05 15:01:21;;;;;;;3.50;2.17;;;;;;;;;;6138801;23;20194;-91
2021/12/05 15:04:10;;;;;;;2.13;1.90;;;;;;;;;;6164867;23;20228;-92
2021/12/05 15:13:00;;;;;;;2.27;1.63;;;;;;;;;;6072096;23;20181;-94
2021/12/05 15:15:31;;;;;;;3.70;1.83;;;;;;;;;;6157056;23;20213;-90
2021/12/05 15:18:39;;;;;;;;;;;;;;;;;;;;;
2021/12/05 15:27:42;;;;;;;2.40;2.20;;;;;;;;;;5885339;24;20189;-93
2021/12/05 15:32:55;;;;;;;2.87;2.03;;;;;;;;;;6063210;23;20310;-93
2021/12/05 15:35:24;;;;;;;2.30;2.10;;;;;;;;;;6068210;23;20204;-91
2021/12/05 15:37:52;;;;;;;2.43;2.03;;;;;;;;;;6068059;23;20188;-90
2021/12/05 15:40:21;;;;;;;2.40;2.20;;;;;;;;;;6156186;23;20193;-93
2021/12/05 15:43:03;;;;;;;10.07;5.40;;;;;;;;;;6157152;23;20190;-94
2021/12/05 15:45:32;;;;;;;3.80;3.00;;;;;;;;;;6156523;23;20190;-92
2021/12/05 15:48:06;;;;;;;3.90;3.23;;;;;;;;;;6159719;23;20170;-94
2021/12/05 15:50:39;;;;;;;4.90;3.37;;;;;;;;;;6159140;23;20181;-93
2021/12/05 15:53:10;;;;;;;4.30;3.87;;;;;;;;;;6159801;23;20249;-89
2021/12/05 15:55:41;;;;;;;5.57;4.97;;;;;;;;;;6159629;23;20221;-92
2021/12/05 15:58:12;;;;;;;5.50;5.00;;;;;;;;;;6159989;23;20174;-91
2021/12/05 16:00:48;;;;;;;4.83;4.33;;;;;;;;;;6158789;23;20175;-89
2021/12/05 16:03:17;;;;;;;4.10;3.70;;;;;;;;;;6160673;23;20166;-88
2021/12/05 16:05:46;;;;;;;4.20;3.80;;;;;;;;;;6157716;23;20217;-88
2021/12/05 16:08:21;;;;;;;10.67;6.37;;;;;;;;;;6161934;23;20230;-92
2021/12/05 16:13:54;;;;;;;5.13;3.83;;;;;;;;;;6149718;23;20246;-89
2021/12/05 16:16:24;;;;;;;3.23;2.93;;;;;;;;;;6159265;23;20191;-93
2021/12/05 16:18:53;;;;;;;5.70;3.47;;;;;;;;;;6160529;23;20177;-89
2021/12/05 16:21:22;;;;;;;4.47;3.60;;;;;;;;;;6157520;23;20237;-89
2021/12/05 16:23:51;;;;;;;4.23;3.57;;;;;;;;;;6156873;23;20201;-88
2021/12/05 16:26:25;;;;;;;5.00;4.50;;;;;;;;;;6156560;23;20651;-89
2021/12/05 16:29:01;;;;;;;4.40;4.00;;;;;;;;;;6157766;23;20174;-89
2021/12/05 16:34:59;;;;;;;3.23;2.93;;;;;;;;;;6067594;23;20256;-88
2021/12/05 16:37:45;;;;;;;3.27;2.97;;;;;;;;;;6067312;23;20257;-92
2021/12/05 16:40:16;;;;;;;3.47;2.87;;;;;;;;;;6131540;23;20186;-91
2021/12/05 16:42:44;;;;;;;3.43;2.97;;;;;;;;;;6161553;23;20265;-89
2021/12/05 16:51:14;;;;;;;3.33;2.97;;;;;;;;;;6125460;23;20175;-88
2021/12/05 16:53:51;;;;;;;3.53;3.20;;;;;;;;;;6129235;23;20175;-88
2021/12/05 16:56:38;;;;;;;3.80;3.23;;;;;;;;;;6129729;23;20195;-88
2021/12/05 16:59:07;;;;;;;4.67;3.10;;;;;;;;;;6129892;23;20179;-85
2021/12/05 17:01:34;;;;;;;4.23;3.30;;;;;;;;;;6129910;23;20195;-85
2021/12/05 17:04:02;;;;;;;3.80;3.37;;;;;;;;;;6135377;23;20171;-85
2021/12/05 17:06:30;;;;;;;4.40;3.53;;;;;;;;;;6136255;23;20199;-86
2021/12/05 17:08:59;;;;;;;4.83;3.90;;;;;;;;;;6130255;23;20175;-87
2021/12/05 17:11:27;;;;;;;5.20;3.97;;;;;;;;;;6129071;23;20167;-86
2021/12/05 17:16:55;;;;;;;4.50;4.10;;;;;;;;;;6145662;23;20218;-85
2021/12/05 17:19:30;;;;;;;7.30;4.53;;;;;;;;;;6157352;23;20175;-87
2021/12/05 17:22:05;;;;;;;4.73;3.67;;;;;;;;;;6161504;23;20229;-85
2021/12/05 17:24:35;;;;;;;4.70;4.10;;;;;;;;;;6161421;23;20233;-84
2021/12/05 17:27:04;;;;;;;5.13;4.63;;;;;;;;;;6158194;23;20177;-87
2021/12/05 17:29:34;;;;;;;5.13;4.63;;;;;;;;;;6159738;23;20178;-84
2021/12/05 17:32:06;;;;;;;7.20;6.57;;;;;;;;;;6160488;23;20171;-84
2021/12/05 17:34:41;;;;;;;6.53;5.93;;;;;;;;;;6161303;23;20202;-85
2021/12/05 17:37:09;;;;;;;5.37;4.87;;;;;;;;;;6158971;23;20178;-87
2021/12/05 17:39:42;;;;;;;5.77;5.03;;;;;;;;;;6158816;23;20241;-87
2021/12/05 17:42:11;;;;;;;5.83;4.80;;;;;;;;;;6159427;23;20210;-86
2021/12/05 17:44:40;;;;;;;4.83;4.03;;;;;;;;;;6161167;23;20210;-83
2021/12/05 17:47:08;;;;;;;4.90;4.50;;;;;;;;;;6162503;23;20174;-82
2021/12/05 17:49:40;;;;;;;4.43;3.90;;;;;;;;;;6161253;23;20195;-82
2021/12/05 17:52:11;;;;;;;4.27;3.87;;;;;;;;;;6158802;23;20189;-82
2021/12/05 17:54:50;;;;;;;4.93;4.23;;;;;;;;;;6162561;23;20174;-82
2021/12/05 17:57:30;;;;;;;5.30;4.80;;;;;;;;;;6162892;23;20174;-83
2021/12/05 18:00:04;;;;;;;5.33;4.70;;;;;;;;;;6160182;23;20177;-83
2021/12/05 18:02:43;;;;;;;5.23;4.33;;;;;;;;;;6160744;23;20182;-80
2021/12/05 18:05:12;;;;;;;5.23;4.73;;;;;;;;;;6160850;23;20198;-82
2021/12/05 18:07:40;;;;;;;5.83;5.10;;;;;;;;;;6162587;23;20245;-84
2021/12/05 18:10:09;;;;;;;6.13;5.47;;;;;;;;;;6162245;23;20237;-82
2021/12/05 18:12:37;;;;;;;4.83;4.40;;;;;;;;;;6162076;23;20171;-80
2021/12/05 18:15:06;;;;;;;6.03;4.90;;;;;;;;;;6159365;23;20274;-80
2021/12/05 18:17:33;;;;;;;5.30;4.60;;;;;;;;;;6161207;23;20183;-82
2021/12/05 18:20:03;;;;;;;5.67;4.90;;;;;;;;;;6160604;23;20202;-82
2021/12/05 18:22:32;;;;;;;5.33;4.83;;;;;;;;;;6160812;23;20210;-81
2021/12/05 18:24:59;;;;;;;5.73;5.03;;;;;;;;;;6160610;23;20187;-81
2021/12/05 18:27:28;;;;;;;7.03;6.00;;;;;;;;;;6161204;23;20174;-81
2021/12/05 18:29:55;;;;;;;11.50;8.97;;;;;;;;;;6160342;23;20170;-81
2021/12/05 18:32:23;;;;;;;9.57;7.93;;;;;;;;;;6161890;23;20171;-82
2021/12/05 18:37:23;;;;;;;8.83;7.73;;;;;;;;;;6072361;23;20248;-85
2021/12/05 18:39:51;;;;;;;12.60;11.50;;;;;;;;;;6074744;23;20173;-83
2021/12/05 18:42:20;;;;;;;9.70;8.70;;;;;;;;;;6072662;23;20221;-82
2021/12/05 18:44:54;;;;;;;8.67;7.87;;;;;;;;;;6071312;23;20201;-81
2021/12/05 18:47:22;;;;;;;7.73;6.60;;;;;;;;;;6071771;23;20617;-84
2021/12/05 18:49:49;;;;;;;6.53;5.93;;;;;;;;;;6072167;23;20208;-84
2021/12/05 18:52:17;;;;;;;6.73;6.13;;;;;;;;;;6071308;23;20173;-80
2021/12/05 18:54:45;;;;;;;6.20;5.60;;;;;;;;;;6072149;23;20181;-82
2021/12/05 18:57:14;;;;;;;6.50;5.90;;;;;;;;;;6074155;23;20524;-81
2021/12/05 18:59:48;;;;;;;6.53;5.67;;;;;;;;;;6078195;23;20241;-82
2021/12/05 19:05:09;;;;;;;5.30;4.80;;;;;;;;;;6068785;23;20276;-82
2021/12/05 19:07:47;;;;;;;5.80;4.80;;;;;;;;;;6068559;23;20176;-82
2021/12/05 19:12:59;;;;;;;5.07;4.27;;;;;;;;;;6068113;23;20618;-82
2021/12/05 19:15:26;;;;;;;4.73;4.33;;;;;;;;;;6069378;23;20200;-81
2021/12/05 19:17:56;;;;;;;5.73;4.53;;;;;;;;;;6069140;23;20183;-81
2021/12/05 19:20:28;;;;;;;5.60;4.87;;;;;;;;;;6070180;23;20232;-81
2021/12/05 19:22:57;;;;;;;6.10;5.50;;;;;;;;;;6069184;23;20263;-81
2021/12/05 19:25:30;;;;;;;5.83;5.23;;;;;;;;;;6070393;23;20197;-84
2021/12/05 19:27:58;;;;;;;6.37;5.40;;;;;;;;;;6071105;23;20239;-82
2021/12/05 19:30:28;;;;;;;7.43;5.53;;;;;;;;;;6069611;23;20173;-81
2021/12/05 19:32:57;;;;;;;7.27;6.57;;;;;;;;;;6069944;23;20168;-80
2021/12/05 19:35:26;;;;;;;7.57;6.87;;;;;;;;;;6071776;23;20208;-81
2021/12/05 19:37:53;;;;;;;8.53;7.60;;;;;;;;;;6071253;23;20196;-81
2021/12/05 19:40:21;;;;;;;8.50;7.60;;;;;;;;;;6072611;23;20574;-82
2021/12/05 19:42:50;;;;;;;7.53;6.83;;;;;;;;;;6071305;23;20197;-83
2021/12/05 19:45:18;;;;;;;8.10;7.03;;;;;;;;;;6071181;23;20200;-82
2021/12/05 19:47:48;;;;;;;7.93;7.13;;;;;;;;;;6071573;23;20196;-82
2021/12/05 19:50:18;;;;;;;7.47;6.70;;;;;;;;;;6072800;23;20173;-82
2021/12/05 19:52:46;;;;;;;8.17;7.47;;;;;;;;;;6074659;23;20184;-83
2021/12/05 19:55:14;;;;;;;8.20;7.50;;;;;;;;;;6071690;23;20200;-82
2021/12/05 19:57:41;;;;;;;8.40;7.60;;;;;;;;;;6074782;23;20172;-82
2021/12/05 20:00:12;;;;;;;8.30;7.40;;;;;;;;;;6072220;23;20184;-87
2021/12/05 20:02:39;;;;;;;7.27;6.50;;;;;;;;;;6072911;23;20192;-82
2021/12/05 20:05:07;;;;;;;7.97;6.60;;;;;;;;;;6071613;23;20196;-83
2021/12/05 20:07:37;;;;;;;8.00;7.20;;;;;;;;;;6073109;23;20228;-82
2021/12/05 20:10:09;;;;;;;7.37;6.60;;;;;;;;;;6076919;23;20176;-87